Time;durP1;ratioP1;P1;durP2;ratioP2;P2;SDS_P1;SDS_P2;PMS_P1;PMS_P2;Temp;Humidity;BMP_temperature;BMP_pressure;BME280_temperature;BME280_humidity;BME280_pressure;Samples;Min_cycle;Max_cycle;Signal;HPM_P1;HPM_P2
2023/04/21 03:02:58;;;;;;;2.58;0.95;;;6.20;99.90;;;;;;5126378;23;88682;-68
2023/04/21 03:05:23;;;;;;;2.60;0.95;;;6.30;99.90;;;;;;4919265;28;87954;-70
2023/04/21 03:07:49;;;;;;;2.83;1.00;;;6.30;99.90;;;;;;4919067;28;88038;-70
2023/04/21 03:10:15;;;;;;;3.38;1.00;;;6.40;99.90;;;;;;4919368;28;87112;-71
2023/04/21 03:12:41;;;;;;;2.30;0.60;;;6.40;99.90;;;;;;4919132;28;87733;-70
2023/04/21 03:15:07;;;;;;;1.83;0.68;;;6.50;99.80;;;;;;4919134;28;87844;-70
2023/04/21 03:17:33;;;;;;;2.70;0.50;;;6.50;99.90;;;;;;4899831;28;87557;-69
2023/04/21 03:19:58;;;;;;;1.67;0.50;;;6.50;99.90;;;;;;4919454;28;87397;-66
2023/04/21 03:22:24;;;;;;;2.25;0.70;;;6.60;99.90;;;;;;4919004;28;88778;-69
2023/04/21 03:24:50;;;;;;;2.13;0.70;;;6.60;99.80;;;;;;4919474;28;87942;-68
2023/04/21 03:27:16;;;;;;;3.03;0.90;;;6.70;99.90;;;;;;4919252;28;87735;-70
2023/04/21 03:29:41;;;;;;;2.30;0.60;;;6.70;99.90;;;;;;4918294;28;87418;-67
2023/04/21 03:32:07;;;;;;;2.00;0.60;;;6.80;99.90;;;;;;4917000;28;89298;-69
2023/04/21 03:34:33;;;;;;;2.22;0.52;;;6.70;99.90;;;;;;4919257;28;88275;-68
2023/04/21 03:36:58;;;;;;;2.75;0.43;;;6.80;99.90;;;;;;4919347;28;87412;-67
2023/04/21 03:39:24;;;;;;;1.75;0.50;;;6.80;99.90;;;;;;4919380;28;87361;-69
2023/04/21 03:41:50;;;;;;;2.45;0.63;;;6.80;99.80;;;;;;4918484;28;88075;-67
2023/04/21 03:44:15;;;;;;;2.55;0.77;;;6.80;99.40;;;;;;4916800;28;88936;-67
2023/04/21 03:46:41;;;;;;;3.47;0.65;;;6.80;98.90;;;;;;4901365;28;87131;-70
2023/04/21 03:49:07;;;;;;;2.88;1.08;;;6.80;99.30;;;;;;4913305;28;87216;-69
2023/04/21 03:51:32;;;;;;;3.22;1.00;;;6.80;99.50;;;;;;4918032;28;87170;-67
2023/04/21 03:53:58;;;;;;;3.97;1.25;;;6.90;99.10;;;;;;4918396;28;87555;-67
2023/04/21 03:56:24;;;;;;;4.30;1.63;;;6.80;99.40;;;;;;4918176;28;88069;-68
2023/04/21 03:58:50;;;;;;;4.05;1.70;;;6.80;99.70;;;;;;4913593;28;87399;-68
2023/04/21 04:01:15;;;;;;;3.55;1.52;;;6.70;99.90;;;;;;4918121;28;87698;-69
2023/04/21 04:03:41;;;;;;;4.00;1.67;;;6.70;99.90;;;;;;4897191;28;90392;-67
2023/04/21 04:06:07;;;;;;;3.85;1.63;;;6.60;99.90;;;;;;4899561;28;87771;-67
2023/04/21 04:08:32;;;;;;;5.28;2.10;;;6.60;99.90;;;;;;4899913;28;87342;-67
2023/04/21 04:10:58;;;;;;;4.22;2.10;;;6.50;99.90;;;;;;4896634;28;87802;-68
2023/04/21 04:13:25;;;;;;;5.53;1.90;;;6.40;99.90;;;;;;4900023;28;87762;-68
2023/04/21 04:15:51;;;;;;;4.72;2.13;;;6.40;99.90;;;;;;4897517;28;87415;-67
2023/04/21 04:18:16;;;;;;;6.43;2.83;;;6.30;99.90;;;;;;4899233;28;89108;-67
2023/04/21 04:20:42;;;;;;;5.30;2.75;;;6.30;99.90;;;;;;4892867;28;89148;-68
2023/04/21 04:23:08;;;;;;;7.05;2.83;;;6.30;99.90;;;;;;4893336;28;88408;-66
2023/04/21 04:25:33;;;;;;;5.13;2.80;;;6.20;99.90;;;;;;4897735;28;87666;-66
2023/04/21 04:27:59;;;;;;;5.40;2.75;;;6.20;99.90;;;;;;4899373;28;87128;-67
2023/04/21 04:30:27;;;;;;;6.05;2.75;;;6.10;99.90;;;;;;4897995;28;88205;-69
2023/04/21 04:32:53;;;;;;;7.50;2.85;;;6.10;99.90;;;;;;4898649;28;88352;-67
2023/04/21 04:35:18;;;;;;;5.13;2.83;;;6.10;99.90;;;;;;4911218;28;87394;-68
2023/04/21 04:37:44;;;;;;;4.80;2.40;;;6.10;99.90;;;;;;4896364;28;88259;-67
2023/04/21 04:40:14;;;;;;;5.80;2.38;;;6.10;99.90;;;;;;4887280;28;88107;-68
2023/04/21 04:42:40;;;;;;;4.57;1.77;;;6.20;99.90;;;;;;4901721;28;88075;-67
2023/04/21 04:45:10;;;;;;;4.45;1.55;;;6.20;99.90;;;;;;4902400;28;88188;-67
2023/04/21 04:47:36;;;;;;;5.70;1.45;;;6.20;99.90;;;;;;4899284;28;87706;-67
2023/04/21 04:50:02;;;;;;;2.67;0.88;;;6.30;99.90;;;;;;4884490;28;88317;-68
2023/04/21 04:52:28;;;;;;;2.25;0.70;;;6.40;99.90;;;;;;4901667;28;88220;-67
2023/04/21 04:54:54;;;;;;;2.20;0.60;;;6.40;99.90;;;;;;4898231;28;88104;-65
2023/04/21 04:57:19;;;;;;;2.67;0.68;;;6.60;99.90;;;;;;4898093;28;87175;-66
2023/04/21 04:59:45;;;;;;;1.83;0.50;;;6.60;99.90;;;;;;4899495;28;87262;-65
2023/04/21 05:02:11;;;;;;;3.72;0.55;;;6.70;99.90;;;;;;4897411;28;87808;-67
2023/04/21 05:04:37;;;;;;;2.22;0.63;;;6.70;99.90;;;;;;4882333;28;88174;-65
2023/04/21 05:07:04;;;;;;;3.53;0.52;;;6.70;99.90;;;;;;4894819;28;89230;-66
2023/04/21 05:09:30;;;;;;;2.35;0.80;;;6.70;99.90;;;;;;4899087;28;89353;-66
2023/04/21 05:11:56;;;;;;;2.67;1.02;;;6.70;99.90;;;;;;4895540;28;89405;-66
2023/04/21 05:14:22;;;;;;;4.45;1.10;;;6.70;99.90;;;;;;4894087;28;87444;-65
2023/04/21 05:16:47;;;;;;;2.20;0.88;;;6.70;99.90;;;;;;4899776;28;87558;-65
2023/04/21 05:19:13;;;;;;;3.75;0.82;;;6.70;99.90;;;;;;4900527;28;89174;-65
2023/04/21 05:21:39;;;;;;;2.53;0.77;;;6.80;99.90;;;;;;4901507;28;87989;-65
2023/04/21 05:24:04;;;;;;;1.92;0.50;;;6.90;99.90;;;;;;4897615;28;87339;-67
2023/04/21 05:26:30;;;;;;;2.30;0.70;;;6.90;99.90;;;;;;4903933;28;87074;-65
2023/04/21 05:28:57;;;;;;;2.28;0.50;;;7.00;99.90;;;;;;4901347;28;87309;-65
2023/04/21 05:31:23;;;;;;;1.45;0.20;;;7.10;99.90;;;;;;4898583;28;89336;-66
2023/04/21 05:33:49;;;;;;;2.22;0.43;;;7.20;99.60;;;;;;4901398;28;88487;-66
2023/04/21 05:36:15;;;;;;;2.30;0.40;;;7.30;99.30;;;;;;4899558;28;87961;-66
2023/04/21 05:38:41;;;;;;;1.95;0.30;;;7.40;99.10;;;;;;4897280;28;88242;-66
2023/04/21 05:41:07;;;;;;;2.15;0.30;;;7.50;98.90;;;;;;4901923;28;87964;-65
2023/04/21 05:43:33;;;;;;;2.60;0.25;;;7.60;98.70;;;;;;4894596;28;88535;-66
2023/04/21 05:46:00;;;;;;;2.00;0.28;;;7.70;98.30;;;;;;4892615;28;87841;-66
2023/04/21 05:48:25;;;;;;;2.90;0.10;;;7.80;98.00;;;;;;4895995;28;87821;-66
2023/04/21 05:50:51;;;;;;;1.10;0.20;;;7.80;96.70;;;;;;4901348;28;87278;-66
2023/04/21 05:53:17;;;;;;;1.52;0.30;;;7.80;97.40;;;;;;4900279;28;87431;-66
2023/04/21 05:55:42;;;;;;;2.67;0.50;;;7.80;97.00;;;;;;4901180;28;87380;-66
2023/04/21 05:58:08;;;;;;;2.78;0.30;;;7.80;97.20;;;;;;4894982;28;90320;-67
2023/04/21 06:00:34;;;;;;;1.80;0.40;;;7.90;96.90;;;;;;4887719;28;89021;-67
2023/04/21 06:02:59;;;;;;;1.80;0.30;;;8.00;96.50;;;;;;4896841;28;89569;-67
2023/04/21 06:05:25;;;;;;;1.85;0.30;;;8.00;96.20;;;;;;4886774;28;88363;-66
2023/04/21 06:07:51;;;;;;;3.13;0.40;;;8.10;96.20;;;;;;4893830;28;87808;-66
2023/04/21 06:10:17;;;;;;;1.92;0.50;;;8.20;96.20;;;;;;4899873;28;87992;-66
2023/04/21 06:12:43;;;;;;;1.95;0.20;;;8.30;96.30;;;;;;4901374;28;88011;-67
2023/04/21 06:15:08;;;;;;;2.45;0.20;;;8.40;96.10;;;;;;4903035;28;86726;-67
2023/04/21 06:17:34;;;;;;;1.88;0.20;;;8.40;95.20;;;;;;4900733;28;87894;-67
2023/04/21 06:20:00;;;;;;;1.90;0.20;;;8.50;95.30;;;;;;4870368;28;88068;-66
2023/04/21 06:22:26;;;;;;;1.52;0.20;;;8.80;94.90;;;;;;4899301;28;88320;-66
2023/04/21 06:24:52;;;;;;;1.05;0.10;;;9.30;93.40;;;;;;4899461;28;87318;-67
2023/04/21 06:27:18;;;;;;;2.38;0.90;;;10.10;91.20;;;;;;4899095;28;88165;-66
2023/04/21 06:29:43;;;;;;;0.95;0.10;;;10.50;90.30;;;;;;4899327;28;88199;-66
2023/04/21 06:32:10;;;;;;;0.88;0.10;;;10.60;87.90;;;;;;4898423;28;87660;-67
2023/04/21 06:34:37;;;;;;;0.82;0.10;;;10.70;86.50;;;;;;4900049;28;88630;-66
2023/04/21 06:37:03;;;;;;;1.75;0.20;;;10.90;86.50;;;;;;4899532;28;87995;-65
2023/04/21 06:39:28;;;;;;;1.15;0.10;;;11.40;85.70;;;;;;4894038;28;87494;-65
2023/04/21 06:41:54;;;;;;;2.72;0.25;;;11.80;83.40;;;;;;4897454;28;88434;-65
2023/04/21 06:44:20;;;;;;;4.75;0.28;;;11.80;82.10;;;;;;4899728;28;87343;-66
2023/04/21 06:46:48;;;;;;;2.50;0.20;;;11.60;81.60;;;;;;4898050;28;88629;-65
2023/04/21 06:49:14;;;;;;;1.88;0.20;;;11.30;81.00;;;;;;4896447;28;88888;-66
2023/04/21 06:51:40;;;;;;;1.13;0.20;;;11.00;82.20;;;;;;4901085;28;87527;-66
2023/04/21 06:54:05;;;;;;;4.70;0.40;;;10.70;85.10;;;;;;4899060;28;88898;-65
2023/04/21 06:56:32;;;;;;;1.17;0.30;;;10.60;86.10;;;;;;4898785;28;88620;-66
2023/04/21 06:58:57;;;;;;;1.88;0.32;;;10.30;86.70;;;;;;4899699;28;87347;-65
2023/04/21 07:01:23;;;;;;;1.70;0.35;;;10.20;88.30;;;;;;4898003;28;87664;-66
2023/04/21 07:03:50;;;;;;;2.25;0.30;;;10.10;88.90;;;;;;4899048;28;86941;-65
2023/04/21 07:06:15;;;;;;;1.48;0.30;;;10.10;89.10;;;;;;4897640;28;88851;-66
2023/04/21 07:08:41;;;;;;;1.80;0.38;;;10.20;89.00;;;;;;4899965;28;87607;-66
2023/04/21 07:11:07;;;;;;;1.40;0.35;;;10.50;89.40;;;;;;4899005;28;88272;-66
2023/04/21 07:13:32;;;;;;;1.45;0.32;;;10.90;87.30;;;;;;4900169;28;87196;-67
2023/04/21 07:15:58;;;;;;;2.13;0.20;;;11.30;86.20;;;;;;4898661;28;88913;-65
2023/04/21 07:18:24;;;;;;;0.90;0.20;;;11.60;84.90;;;;;;4900829;28;87633;-67
2023/04/21 07:20:50;;;;;;;3.70;0.22;;;12.10;83.10;;;;;;4894166;28;87289;-66
2023/04/21 07:23:16;;;;;;;4.60;2.50;;;12.90;81.80;;;;;;4899297;28;87295;-67
2023/04/21 07:25:41;;;;;;;5.28;3.13;;;14.20;78.20;;;;;;4894800;28;88856;-66
2023/04/21 07:28:07;;;;;;;4.93;2.83;;;15.40;75.00;;;;;;4894564;28;87786;-67
2023/04/21 07:30:33;;;;;;;4.53;2.83;;;16.60;71.60;;;;;;4899485;28;87395;-66
2023/04/21 07:32:59;;;;;;;5.65;3.10;;;16.90;67.90;;;;;;4895195;28;87488;-68
2023/04/21 07:35:25;;;;;;;4.32;2.80;;;17.30;66.80;;;;;;4897286;28;89176;-68
2023/04/21 07:37:51;;;;;;;5.72;3.17;;;18.00;65.30;;;;;;4898604;28;88139;-68
2023/04/21 07:40:16;;;;;;;3.45;2.53;;;19.40;61.80;;;;;;4897979;28;87543;-68
2023/04/21 07:42:42;;;;;;;3.65;2.65;;;21.00;58.70;;;;;;4902591;28;87551;-68
2023/04/21 07:45:08;;;;;;;3.85;2.55;;;22.50;53.30;;;;;;4898228;28;88116;-69
2023/04/21 07:47:34;;;;;;;3.35;2.50;;;23.40;51.50;;;;;;4899218;28;87860;-68
2023/04/21 07:50:00;;;;;;;3.83;3.08;;;24.20;49.60;;;;;;4899242;28;87237;-68
2023/04/21 07:52:25;;;;;;;3.67;2.72;;;25.20;48.60;;;;;;4899585;28;86498;-68
2023/04/21 07:54:51;;;;;;;4.55;2.33;;;24.90;46.30;;;;;;4899676;28;87698;-69
2023/04/21 07:57:17;;;;;;;5.18;2.97;;;24.80;45.60;;;;;;4899211;28;88710;-68
2023/04/21 07:59:42;;;;;;;4.00;2.90;;;24.90;45.90;;;;;;4909277;28;88271;-69
2023/04/21 08:02:08;;;;;;;3.58;1.67;;;25.10;45.50;;;;;;4894857;28;87742;-70
2023/04/21 08:04:34;;;;;;;2.38;1.25;;;25.80;44.20;;;;;;4898551;28;88476;-70
2023/04/21 08:07:00;;;;;;;1.60;0.60;;;27.10;43.40;;;;;;4899260;28;87932;-66
2023/04/21 08:09:26;;;;;;;2.47;1.02;;;27.80;39.60;;;;;;4899140;28;87570;-66
2023/04/21 08:11:52;;;;;;;2.58;2.08;;;28.50;40.50;;;;;;4898687;28;87289;-67
2023/04/21 08:14:18;;;;;;;3.55;1.70;;;30.00;39.70;;;;;;4898429;28;88175;-68
2023/04/21 08:16:44;;;;;;;2.90;2.00;;;30.30;39.20;;;;;;4901088;28;87875;-67
2023/04/21 08:19:10;;;;;;;2.67;1.83;;;31.40;39.20;;;;;;4902866;28;87164;-67
2023/04/21 08:21:36;;;;;;;2.65;2.17;;;32.60;37.70;;;;;;4902486;28;88585;-67
2023/04/21 08:24:02;;;;;;;2.60;2.33;;;34.00;36.70;;;;;;4901971;28;89182;-67
2023/04/21 08:26:29;;;;;;;2.22;1.52;;;34.40;35.40;;;;;;4901600;28;87394;-68
2023/04/21 08:28:55;;;;;;;2.22;1.58;;;34.30;35.40;;;;;;4902673;28;87413;-68
2023/04/21 08:31:21;;;;;;;4.50;2.40;;;35.10;35.00;;;;;;4902015;28;88135;-67
2023/04/21 08:33:47;;;;;;;3.10;2.70;;;35.70;33.40;;;;;;4901843;28;88158;-68
2023/04/21 08:36:13;;;;;;;3.60;2.88;;;35.80;33.90;;;;;;4902340;28;88032;-67
2023/04/21 08:38:41;;;;;;;2.95;2.63;;;35.30;33.80;;;;;;4902335;28;87691;-67
2023/04/21 08:41:08;;;;;;;3.05;2.72;;;35.80;33.90;;;;;;4902334;28;86673;-68
2023/04/21 08:43:33;;;;;;;4.97;2.92;;;36.30;33.40;;;;;;4901814;28;88136;-68
2023/04/21 08:46:01;;;;;;;5.10;2.65;;;36.20;33.10;;;;;;4901477;28;88339;-68
2023/04/21 08:48:28;;;;;;;2.40;2.08;;;37.00;32.50;;;;;;4885317;28;88262;-68
2023/04/21 08:50:54;;;;;;;2.85;1.63;;;37.40;32.00;;;;;;4901480;28;87189;-68
2023/04/21 08:53:20;;;;;;;3.60;2.45;;;38.10;31.20;;;;;;4902181;28;88565;-68
2023/04/21 08:55:50;;;;;;;1.95;1.50;;;38.00;31.60;;;;;;4884305;28;88852;-69
2023/04/21 08:58:16;;;;;;;2.33;1.63;;;37.70;29.90;;;;;;4892881;28;87376;-68
2023/04/21 09:00:42;;;;;;;2.35;2.15;;;37.40;31.60;;;;;;4895417;28;87341;-68
2023/04/21 09:03:07;;;;;;;2.20;1.77;;;37.60;31.20;;;;;;4901727;28;87431;-68
2023/04/21 09:05:36;;;;;;;2.20;1.90;;;37.80;30.00;;;;;;4904059;28;87362;-68
2023/04/21 09:08:13;;;;;;;4.32;2.83;;;38.20;30.80;;;;;;4901459;28;87789;-68
2023/04/21 09:10:43;;;;;;;5.53;4.95;;;38.40;30.20;;;;;;4893961;28;87410;-68
2023/04/21 09:13:09;;;;;;;3.67;2.97;;;38.40;31.10;;;;;;4900424;28;88272;-68
2023/04/21 09:15:39;;;;;;;6.20;5.70;;;38.10;31.80;;;;;;4899692;28;89378;-68
2023/04/21 09:18:11;;;;;;;3.35;3.05;;;38.10;30.60;;;;;;4900987;28;87502;-68
2023/04/21 09:20:37;;;;;;;3.60;3.30;;;37.90;31.70;;;;;;4901601;28;87615;-68
2023/04/21 09:23:06;;;;;;;3.88;3.58;;;38.40;31.10;;;;;;4903000;28;88863;-69
2023/04/21 09:25:33;;;;;;;3.38;3.08;;;39.10;31.40;;;;;;4900443;28;88258;-69
2023/04/21 09:28:01;;;;;;;3.10;2.80;;;39.60;29.80;;;;;;4892561;28;87394;-68
2023/04/21 09:30:27;;;;;;;3.45;3.03;;;39.10;31.10;;;;;;4894868;28;87652;-68
2023/04/21 09:32:57;;;;;;;5.13;2.83;;;39.10;30.60;;;;;;4893246;28;87511;-68
2023/04/21 09:35:27;;;;;;;4.10;3.72;;;39.10;30.70;;;;;;4898245;28;87692;-68
2023/04/21 09:37:53;;;;;;;2.92;2.65;;;39.00;30.70;;;;;;4899884;28;89244;-68
2023/04/21 09:40:19;;;;;;;6.43;5.93;;;39.40;30.60;;;;;;4901710;28;87428;-69
2023/04/21 09:42:45;;;;;;;3.58;2.72;;;39.80;30.20;;;;;;4897632;28;88227;-69
2023/04/21 09:45:13;;;;;;;3.33;2.90;;;39.60;29.80;;;;;;4890771;28;87491;-68
2023/04/21 09:47:41;;;;;;;6.50;5.90;;;39.30;30.50;;;;;;4900580;28;87400;-67
2023/04/21 09:50:11;;;;;;;;;;;39.40;30.00;;;;;;4901911;28;87498;-68
2023/04/21 09:52:38;;;;;;;3.55;2.88;;;38.90;30.10;;;;;;4900592;28;87653;-67
2023/04/21 09:55:09;;;;;;;3.90;3.25;;;38.10;30.60;;;;;;4901113;28;87000;-68
2023/04/21 09:57:37;;;;;;;4.00;3.63;;;38.20;31.20;;;;;;4901942;28;87325;-67
2023/04/21 10:00:08;;;;;;;3.35;3.08;;;37.70;31.60;;;;;;4901555;28;87680;-67
2023/04/21 10:02:36;;;;;;;5.63;5.03;;;37.30;32.00;;;;;;4898984;28;89645;-67
2023/04/21 10:05:05;;;;;;;2.88;2.35;;;37.00;31.70;;;;;;4883321;28;89558;-67
2023/04/21 10:07:31;;;;;;;5.53;5.03;;;36.50;32.10;;;;;;4899015;28;87353;-67
2023/04/21 10:09:58;;;;;;;5.97;4.53;;;35.50;31.60;;;;;;4898192;28;87595;-67
2023/04/21 10:12:26;;;;;;;2.90;2.35;;;34.10;33.90;;;;;;4896909;28;88647;-68
2023/04/21 10:14:55;;;;;;;2.65;1.85;;;32.90;36.10;;;;;;4910107;28;87104;-68
2023/04/21 10:17:25;;;;;;;3.17;2.83;;;31.10;37.30;;;;;;4883299;28;87425;-68
2023/04/21 10:19:53;;;;;;;2.42;1.85;;;29.40;38.60;;;;;;4900823;28;86675;-68
2023/04/21 10:22:32;;;;;;;3.75;2.20;;;28.30;41.80;;;;;;4900539;28;88754;-68
2023/04/21 10:25:00;;;;;;;4.65;1.90;;;26.90;42.10;;;;;;4900646;28;88660;-67
2023/04/21 10:27:36;;;;;;;2.83;1.50;;;26.10;44.60;;;;;;4899422;28;88230;-69
2023/04/21 10:30:22;;;;;;;2.78;2.03;;;25.30;47.00;;;;;;4900398;28;87514;-68
2023/04/21 10:33:00;;;;;;;3.78;2.03;;;24.00;48.60;;;;;;4891822;28;87789;-68
2023/04/21 10:36:02;;;;;;;3.42;1.88;;;23.10;50.00;;;;;;4893044;28;88088;-68
2023/04/21 10:38:42;;;;;;;3.13;1.60;;;22.30;51.40;;;;;;4895521;28;87205;-68
2023/04/21 10:41:27;;;;;;;4.88;1.73;;;22.10;52.00;;;;;;4895110;28;87535;-68
2023/04/21 10:43:56;;;;;;;3.22;1.75;;;22.00;52.30;;;;;;4890136;28;87443;-68
2023/04/21 10:46:39;;;;;;;3.10;1.98;;;21.70;53.10;;;;;;4892870;28;88288;-67
2023/04/21 10:49:10;;;;;;;3.25;1.92;;;21.30;53.50;;;;;;4894273;28;87506;-67
2023/04/21 10:51:58;;;;;;;3.90;2.88;;;21.00;54.90;;;;;;4897026;28;87512;-67
2023/04/21 10:54:48;;;;;;;4.55;2.95;;;20.80;54.70;;;;;;4898896;28;88508;-68
2023/04/21 10:57:19;;;;;;;4.35;3.22;;;20.70;54.70;;;;;;4883816;28;88420;-68
2023/04/21 10:59:46;;;;;;;6.10;2.70;;;20.60;56.60;;;;;;4891524;28;87955;-68
2023/04/21 11:02:14;;;;;;;4.80;2.30;;;20.70;55.00;;;;;;4891868;28;89054;-67
2023/04/21 11:04:46;;;;;;;4.93;2.42;;;21.00;54.50;;;;;;4893307;28;88340;-68
2023/04/21 11:07:17;;;;;;;4.32;2.53;;;21.10;56.50;;;;;;4890265;28;90231;-68
2023/04/21 11:09:46;;;;;;;4.63;2.08;;;21.30;55.20;;;;;;4875953;28;87485;-68
2023/04/21 11:12:17;;;;;;;5.72;2.03;;;21.20;56.70;;;;;;4885580;28;87411;-70
2023/04/21 11:14:46;;;;;;;5.20;2.28;;;21.00;57.50;;;;;;4893700;28;87398;-67
2023/04/21 11:17:17;;;;;;;3.42;1.95;;;20.90;55.60;;;;;;4892633;28;89913;-68
2023/04/21 11:19:48;;;;;;;3.22;1.85;;;20.90;58.50;;;;;;4894404;28;88989;-68
2023/04/21 11:22:16;;;;;;;3.38;2.00;;;20.90;55.80;;;;;;4894589;28;87316;-68
2023/04/21 11:24:46;;;;;;;2.67;1.73;;;20.80;58.50;;;;;;4881211;28;87922;-68
2023/04/21 11:27:13;;;;;;;2.75;1.83;;;20.70;55.40;;;;;;4881655;28;90738;-68
2023/04/21 11:29:39;;;;;;;3.30;1.92;;;20.40;59.60;;;;;;4893106;28;87470;-68
2023/04/21 11:32:06;;;;;;;2.58;1.42;;;20.40;55.70;;;;;;4892578;28;87533;-67
2023/04/21 11:34:32;;;;;;;3.20;2.17;;;20.30;56.10;;;;;;4885656;28;89121;-68
2023/04/21 11:36:57;;;;;;;3.38;2.08;;;20.10;60.80;;;;;;4896131;28;88465;-68
2023/04/21 11:39:23;;;;;;;3.80;1.70;;;20.30;61.80;;;;;;4892566;28;87993;-68
2023/04/21 11:41:50;;;;;;;4.30;1.88;;;20.30;57.60;;;;;;4895028;28;87571;-67
2023/04/21 11:44:31;;;;;;;2.97;1.70;;;20.30;59.10;;;;;;4890416;28;89565;-67
2023/04/21 11:46:57;;;;;;;4.72;2.13;;;20.30;59.20;;;;;;4896313;28;88767;-67
2023/04/21 11:49:30;;;;;;;3.90;1.83;;;20.30;58.30;;;;;;4892019;28;87537;-68
2023/04/21 11:51:56;;;;;;;3.13;2.10;;;20.10;63.90;;;;;;4894919;28;87814;-67
2023/04/21 11:54:23;;;;;;;4.57;1.85;;;20.20;61.60;;;;;;4905399;28;87761;-67
2023/04/21 11:56:50;;;;;;;3.65;1.48;;;20.30;63.10;;;;;;4901268;28;88836;-67
2023/04/21 11:59:21;;;;;;;6.57;2.63;;;20.40;63.80;;;;;;4896650;28;87492;-68
2023/04/21 12:01:52;;;;;;;3.40;2.35;;;20.40;62.50;;;;;;4897509;28;86619;-68
2023/04/21 12:04:22;;;;;;;4.93;2.30;;;20.30;62.50;;;;;;4899088;28;87857;-68
2023/04/21 12:07:00;;;;;;;4.15;2.03;;;20.30;61.30;;;;;;4896843;28;87472;-68
2023/04/21 12:09:26;;;;;;;7.20;2.75;;;20.40;63.60;;;;;;4896308;28;88143;-67
2023/04/21 12:11:53;;;;;;;3.17;2.22;;;20.30;61.60;;;;;;4893113;28;89451;-67
2023/04/21 12:14:21;;;;;;;3.58;2.15;;;20.00;61.80;;;;;;4899553;28;87670;-67
2023/04/21 12:16:54;;;;;;;4.10;2.13;;;20.00;61.20;;;;;;4895251;28;87792;-67
2023/04/21 12:19:34;;;;;;;3.55;2.15;;;19.90;61.40;;;;;;4893983;28;89334;-68
2023/04/21 12:22:00;;;;;;;4.50;2.38;;;20.00;61.90;;;;;;4900662;28;88992;-68
2023/04/21 12:24:26;;;;;;;3.72;2.03;;;20.00;66.10;;;;;;4899934;28;88791;-68
2023/04/21 12:26:51;;;;;;;5.25;2.50;;;20.10;62.50;;;;;;4902125;28;87798;-68
2023/04/21 12:29:17;;;;;;;5.25;2.25;;;20.00;61.50;;;;;;4892316;28;87463;-66
2023/04/21 12:31:43;;;;;;;3.47;2.10;;;19.90;66.00;;;;;;4892233;28;87654;-67
2023/04/21 12:34:08;;;;;;;4.35;2.05;;;20.00;64.20;;;;;;4897863;28;88803;-68
2023/04/21 12:36:34;;;;;;;6.43;1.88;;;20.20;64.90;;;;;;4902003;28;88838;-68
2023/04/21 12:39:00;;;;;;;3.85;2.25;;;20.40;63.80;;;;;;4896351;28;87744;-68
2023/04/21 12:41:26;;;;;;;3.78;2.08;;;20.40;65.00;;;;;;4901746;28;87809;-68
2023/04/21 12:43:52;;;;;;;3.63;2.03;;;20.40;61.20;;;;;;4902192;28;88881;-67
2023/04/21 12:46:18;;;;;;;3.97;2.42;;;20.40;61.50;;;;;;4900508;28;87824;-67
2023/04/21 12:48:43;;;;;;;3.30;1.83;;;20.30;62.90;;;;;;4900176;28;87335;-66
2023/04/21 12:51:09;;;;;;;5.95;2.08;;;20.30;62.80;;;;;;4899228;28;86737;-67
2023/04/21 12:53:35;;;;;;;4.97;2.20;;;20.20;59.50;;;;;;4898846;28;88903;-67
2023/04/21 12:56:02;;;;;;;4.88;1.92;;;20.00;60.80;;;;;;4897671;28;88006;-67
2023/04/21 12:58:28;;;;;;;5.68;2.40;;;19.80;63.90;;;;;;4900760;28;88310;-67
2023/04/21 13:00:54;;;;;;;4.20;2.10;;;19.90;61.80;;;;;;4900514;28;89601;-66
2023/04/21 13:03:19;;;;;;;3.67;2.20;;;19.80;61.30;;;;;;4900397;28;87471;-66
2023/04/21 13:05:45;;;;;;;3.25;1.95;;;19.80;63.00;;;;;;4899997;28;88041;-66
2023/04/21 13:08:11;;;;;;;5.78;2.67;;;19.70;61.30;;;;;;4895719;28;87396;-67
2023/04/21 13:10:37;;;;;;;3.50;1.77;;;19.60;63.80;;;;;;4900794;28;87356;-66
2023/04/21 13:13:02;;;;;;;4.13;1.77;;;19.80;65.80;;;;;;4899151;28;87659;-67
2023/04/21 13:15:28;;;;;;;3.15;1.90;;;20.20;64.30;;;;;;4892557;28;88212;-66
2023/04/21 13:17:54;;;;;;;5.30;2.33;;;20.20;62.00;;;;;;4897393;28;88245;-66
2023/04/21 13:20:21;;;;;;;4.47;1.80;;;20.10;62.60;;;;;;4894837;28;87309;-66
2023/04/21 13:22:47;;;;;;;4.30;1.98;;;19.90;60.00;;;;;;4895387;28;89188;-67
2023/04/21 13:25:12;;;;;;;3.85;1.65;;;19.80;63.60;;;;;;4895981;28;88781;-67
2023/04/21 13:27:39;;;;;;;4.15;1.90;;;19.80;63.00;;;;;;4899173;28;87595;-67
2023/04/21 13:30:10;;;;;;;2.67;1.40;;;19.90;60.70;;;;;;4909809;28;87498;-67
2023/04/21 13:32:36;;;;;;;3.25;1.70;;;20.10;63.10;;;;;;4899077;28;89898;-67
2023/04/21 13:35:07;;;;;;;3.33;1.73;;;20.10;61.40;;;;;;4899751;28;87742;-66
2023/04/21 13:37:39;;;;;;;3.70;1.52;;;20.10;62.00;;;;;;4900055;28;87536;-67
2023/04/21 13:40:08;;;;;;;5.10;1.33;;;19.90;61.40;;;;;;4902260;28;86669;-67
2023/04/21 13:42:34;;;;;;;2.38;1.10;;;19.80;63.70;;;;;;4870673;28;89161;-67
2023/04/21 13:45:03;;;;;;;3.72;1.35;;;19.80;62.70;;;;;;4881835;28;90121;-67
2023/04/21 13:47:30;;;;;;;2.40;1.50;;;19.80;61.90;;;;;;4898517;28;89427;-66
2023/04/21 13:49:56;;;;;;;2.88;1.23;;;19.70;60.60;;;;;;4895085;28;87433;-67
2023/04/21 13:52:22;;;;;;;2.03;1.08;;;19.70;61.20;;;;;;4897486;28;88118;-66
2023/04/21 13:54:47;;;;;;;1.90;0.80;;;19.70;62.00;;;;;;4900443;28;87768;-68
2023/04/21 13:57:13;;;;;;;2.60;1.00;;;19.90;61.30;;;;;;4899626;28;87334;-65
2023/04/21 13:59:40;;;;;;;3.58;0.95;;;20.00;61.40;;;;;;4898202;28;87492;-67
2023/04/21 14:02:06;;;;;;;2.80;1.00;;;20.00;58.90;;;;;;4892639;28;89197;-66
2023/04/21 14:04:32;;;;;;;2.13;0.95;;;19.90;58.10;;;;;;4893667;28;87755;-66
2023/04/21 14:06:57;;;;;;;7.60;1.52;;;19.90;58.90;;;;;;4893522;28;88288;-68
2023/04/21 14:09:23;;;;;;;3.95;1.52;;;20.00;59.90;;;;;;4898607;28;88510;-66
2023/04/21 14:11:49;;;;;;;4.40;1.52;;;20.20;59.70;;;;;;4896108;28;88580;-66
2023/04/21 14:14:15;;;;;;;3.22;1.60;;;20.40;59.80;;;;;;4898945;28;88314;-66
2023/04/21 14:16:41;;;;;;;2.65;1.42;;;20.50;59.70;;;;;;4900012;28;87190;-67
2023/04/21 14:19:07;;;;;;;3.85;1.33;;;20.50;58.80;;;;;;4900110;28;87327;-68
2023/04/21 14:21:33;;;;;;;5.10;1.50;;;20.50;58.40;;;;;;4895504;28;87690;-68
2023/04/21 14:23:59;;;;;;;3.55;1.55;;;20.40;58.50;;;;;;4893801;28;87918;-66
2023/04/21 14:26:24;;;;;;;3.42;1.23;;;20.20;58.70;;;;;;4898982;28;87477;-68
2023/04/21 14:28:50;;;;;;;2.33;1.20;;;20.20;60.50;;;;;;4905899;28;86510;-66
2023/04/21 14:31:16;;;;;;;2.63;1.42;;;20.10;60.10;;;;;;4902841;28;88249;-65
2023/04/21 14:33:41;;;;;;;3.17;1.30;;;20.00;59.80;;;;;;4900134;28;87862;-66
2023/04/21 14:36:07;;;;;;;3.00;1.52;;;20.00;60.60;;;;;;4898446;28;88471;-67
2023/04/21 14:38:33;;;;;;;5.07;1.25;;;20.00;60.00;;;;;;4899295;28;87181;-66
2023/04/21 14:40:58;;;;;;;5.80;1.92;;;20.10;60.40;;;;;;4899983;28;88337;-66
2023/04/21 14:43:24;;;;;;;2.78;1.55;;;20.10;60.00;;;;;;4899787;28;87854;-66
2023/04/21 14:45:50;;;;;;;5.60;1.10;;;20.00;59.60;;;;;;4897289;28;87792;-66
2023/04/21 14:48:16;;;;;;;2.78;1.13;;;20.00;60.80;;;;;;4896567;28;89369;-66
2023/04/21 14:50:41;;;;;;;2.45;1.30;;;20.00;60.60;;;;;;4898137;28;87426;-67
2023/04/21 14:53:07;;;;;;;3.72;1.38;;;20.00;60.70;;;;;;4900369;28;88235;-66
2023/04/21 14:55:33;;;;;;;5.13;1.27;;;19.90;60.70;;;;;;4900922;28;87407;-66
2023/04/21 14:57:59;;;;;;;2.70;1.33;;;19.80;61.10;;;;;;4881753;28;87388;-65
2023/04/21 15:00:25;;;;;;;2.25;0.93;;;19.90;61.60;;;;;;4897368;28;89617;-66
2023/04/21 15:02:51;;;;;;;2.70;1.25;;;20.00;61.90;;;;;;4896466;28;89485;-67
2023/04/21 15:05:17;;;;;;;4.35;1.75;;;20.00;60.80;;;;;;4900142;28;87526;-66
2023/04/21 15:07:43;;;;;;;3.90;2.03;;;20.10;62.50;;;;;;4900533;28;87036;-66
2023/04/21 15:10:10;;;;;;;3.63;2.20;;;20.10;61.70;;;;;;4879456;28;88515;-67
2023/04/21 15:12:37;;;;;;;4.95;1.95;;;20.10;62.20;;;;;;4897790;28;87256;-66
2023/04/21 15:15:04;;;;;;;4.00;2.38;;;20.00;62.40;;;;;;4900408;28;87150;-65
2023/04/21 15:17:30;;;;;;;11.88;5.28;;;19.80;62.50;;;;;;4895270;28;86796;-68
2023/04/21 15:19:56;;;;;;;15.65;7.45;;;19.70;62.80;;;;;;4902207;28;87750;-66
2023/04/21 15:22:22;;;;;;;17.10;8.25;;;19.60;63.10;;;;;;4898772;28;88157;-65
2023/04/21 15:24:47;;;;;;;9.43;5.00;;;19.50;62.70;;;;;;4896807;28;88438;-67
2023/04/21 15:27:13;;;;;;;5.68;2.58;;;19.40;62.70;;;;;;4886917;28;87505;-65
2023/04/21 15:29:39;;;;;;;2.85;1.38;;;19.50;62.10;;;;;;4900273;28;88361;-66
2023/04/21 15:32:05;;;;;;;3.72;1.75;;;19.50;63.80;;;;;;4893394;28;87442;-67
2023/04/21 15:34:30;;;;;;;3.05;1.52;;;19.30;62.10;;;;;;4881773;28;87053;-66
2023/04/21 15:36:56;;;;;;;1.95;0.85;;;19.30;64.70;;;;;;4895310;28;88662;-67
2023/04/21 15:39:22;;;;;;;1.90;0.90;;;19.20;63.70;;;;;;4895490;28;89199;-66
2023/04/21 15:41:48;;;;;;;4.05;1.30;;;19.10;61.60;;;;;;4894046;28;88085;-66
2023/04/21 15:44:13;;;;;;;4.72;1.20;;;19.00;62.80;;;;;;4891901;28;87767;-67
2023/04/21 15:46:39;;;;;;;2.58;0.63;;;19.00;61.80;;;;;;4891535;28;87908;-66
2023/04/21 15:49:05;;;;;;;3.25;1.15;;;19.10;62.00;;;;;;4890563;28;88627;-68
2023/04/21 15:51:32;;;;;;;2.78;1.13;;;19.10;61.20;;;;;;4895234;28;88767;-69